Time;durP1;ratioP1;P1;durP2;ratioP2;P2;SDS_P1;SDS_P2;PMS_P1;PMS_P2;Temp;Humidity;BMP_temperature;BMP_pressure;BME280_temperature;BME280_humidity;BME280_pressure;Samples;Min_cycle;Max_cycle;Signal;HPM_P1;HPM_P2
2022/06/24 00:00:28;;;;;;;;;;;18.50;99.90;;;;;;4954866;28;19923;-73
2022/06/24 00:03:00;;;;;;;;;;;18.40;99.90;;;;;;4953390;29;19923;-74
2022/06/24 00:05:33;;;;;;;;;;;18.50;99.90;;;;;;4956418;28;20295;-73
2022/06/24 00:08:05;;;;;;;;;;;18.40;99.90;;;;;;4954590;28;19930;-74
2022/06/24 00:10:37;;;;;;;;;;;18.40;99.90;;;;;;4963541;28;19989;-73
2022/06/24 00:13:09;;;;;;;;;;;18.30;99.90;;;;;;4959103;28;20311;-73
2022/06/24 00:15:40;;;;;;;;;;;18.30;99.90;;;;;;4950553;29;19927;-73
2022/06/24 00:18:13;;;;;;;;;;;18.20;99.90;;;;;;4952051;28;19930;-74
2022/06/24 00:20:49;;;;;;;;;;;18.00;99.90;;;;;;4954021;29;19980;-73
2022/06/24 00:23:21;;;;;;;;;;;18.10;99.90;;;;;;4954382;28;19922;-73
2022/06/24 00:25:53;;;;;;;;;;;18.20;99.90;;;;;;4951596;28;19935;-73
2022/06/24 00:28:25;;;;;;;;;;;18.20;99.90;;;;;;4953168;29;19926;-73
2022/06/24 00:30:57;;;;;;;;;;;18.20;99.90;;;;;;4967632;28;20299;-73
2022/06/24 00:33:33;;;;;;;;;;;18.20;99.90;;;;;;4969216;28;19926;-73
2022/06/24 00:36:06;;;;;;;;;;;18.20;99.90;;;;;;4953417;29;19934;-74
2022/06/24 00:38:38;;;;;;;;;;;18.20;99.90;;;;;;4955112;28;19933;-73
2022/06/24 00:41:13;;;;;;;;;;;18.20;99.90;;;;;;4951737;29;19930;-73
2022/06/24 00:43:46;;;;;;;;;;;18.20;99.90;;;;;;4954119;28;19945;-74
2022/06/24 00:46:23;;;;;;;;;;;18.10;99.90;;;;;;4951382;29;19926;-73
2022/06/24 00:48:58;;;;;;;;;;;18.00;99.90;;;;;;4953580;29;19933;-73
2022/06/24 00:51:37;;;;;;;;;;;18.00;99.90;;;;;;4954423;29;20365;-72
2022/06/24 00:54:11;;;;;;;;;;;18.00;99.90;;;;;;4964469;28;19923;-73
2022/06/24 00:56:45;;;;;;;;;;;18.00;99.90;;;;;;4953547;28;19926;-73
2022/06/24 00:59:16;;;;;;;;;;;18.00;99.90;;;;;;4951755;29;20350;-73
2022/06/24 01:01:49;;;;;;;;;;;18.00;99.90;;;;;;4953451;29;19922;-73
2022/06/24 01:04:30;;;;;;;;;;;18.00;99.90;;;;;;4951343;29;19926;-73
2022/06/24 01:07:01;;;;;;;;;;;18.00;99.90;;;;;;4951937;29;19933;-73
2022/06/24 01:09:33;;;;;;;;;;;17.90;99.90;;;;;;4952850;28;19934;-73
2022/06/24 01:12:05;;;;;;;;;;;17.90;99.90;;;;;;4950688;29;19929;-74
2022/06/24 01:14:36;;;;;;;;;;;17.90;99.90;;;;;;4953874;28;19926;-73
2022/06/24 01:17:04;;;;;;;;;;;17.90;99.90;;;;;;4952556;28;20018;-74
2022/06/24 01:19:35;;;;;;;;;;;17.80;99.90;;;;;;4953909;28;19926;-73
2022/06/24 01:22:07;;;;;;;;;;;17.70;99.90;;;;;;4954156;28;19933;-74
2022/06/24 01:24:39;;;;;;;;;;;17.70;99.90;;;;;;4954612;28;19933;-73
2022/06/24 01:27:10;;;;;;;;;;;17.60;99.90;;;;;;4952126;29;19926;-73
2022/06/24 01:29:42;;;;;;;;;;;17.60;99.90;;;;;;4962922;28;20284;-73
2022/06/24 01:32:14;;;;;;;;;;;17.60;99.90;;;;;;4952058;29;19962;-73
2022/06/24 01:34:46;;;;;;;;;;;17.50;99.90;;;;;;4968008;28;19927;-73
2022/06/24 01:37:17;;;;;;;;;;;17.50;99.90;;;;;;4952401;28;20283;-73
2022/06/24 01:39:49;;;;;;;;;;;17.50;99.90;;;;;;4960775;28;19922;-74
2022/06/24 01:42:20;;;;;;;;;;;17.50;99.90;;;;;;4953729;28;19928;-73
2022/06/24 01:44:52;;;;;;;;;;;17.50;99.90;;;;;;4952657;28;19966;-73
2022/06/24 01:47:24;;;;;;;;;;;17.40;99.90;;;;;;4966976;28;19932;-72
2022/06/24 01:49:55;;;;;;;;;;;17.40;99.90;;;;;;4952912;29;20346;-73
2022/06/24 01:52:27;;;;;;;;;;;17.50;99.90;;;;;;4949961;28;19929;-73
2022/06/24 01:54:58;;;;;;;;;;;17.50;99.90;;;;;;4947111;29;19930;-71
2022/06/24 01:57:30;;;;;;;;;;;17.50;99.90;;;;;;4946308;29;19929;-73
2022/06/24 02:00:02;;;;;;;;;;;17.50;99.90;;;;;;4950755;28;20413;-74
2022/06/24 02:02:34;;;;;;;;;;;17.60;99.90;;;;;;4952597;29;19927;-73
2022/06/24 02:05:06;;;;;;;;;;;17.50;99.90;;;;;;4951108;28;20433;-73
2022/06/24 02:07:38;;;;;;;;;;;17.50;99.90;;;;;;4948826;29;20561;-73
2022/06/24 02:15:49;;;;;;;;;;;17.50;99.90;;;;;;4949192;28;19949;-74
2022/06/24 02:18:22;;;;;;;;;;;17.60;99.90;;;;;;4950331;29;20021;-73
2022/06/24 02:20:54;;;;;;;;;;;17.50;99.90;;;;;;4950574;29;20021;-73
2022/06/24 02:23:25;;;;;;;;;;;17.40;99.90;;;;;;4952433;28;19938;-73
2022/06/24 02:25:57;;;;;;;;;;;17.40;99.90;;;;;;4951432;28;20371;-74
2022/06/24 02:28:29;;;;;;;;;;;17.40;99.90;;;;;;4951159;29;20276;-73
2022/06/24 02:31:01;;;;;;;;;;;17.40;99.90;;;;;;4951847;29;19926;-73
2022/06/24 02:33:33;;;;;;;;;;;17.40;99.90;;;;;;4952723;28;19928;-73
2022/06/24 02:36:05;;;;;;;;;;;17.30;99.90;;;;;;4950303;29;19922;-73
2022/06/24 02:38:37;;;;;;;;;;;17.20;99.90;;;;;;4952301;28;19923;-73
2022/06/24 02:41:09;;;;;;;;;;;17.20;99.90;;;;;;4950633;29;19923;-73
2022/06/24 02:43:40;;;;;;;;;;;17.30;99.90;;;;;;4951851;28;19933;-73
2022/06/24 02:46:13;;;;;;;;;;;17.40;99.90;;;;;;4951313;28;20701;-73
2022/06/24 02:48:46;;;;;;;;;;;17.40;99.90;;;;;;4948606;28;19926;-72
2022/06/24 02:51:18;;;;;;;;;;;17.30;99.90;;;;;;4949759;28;19927;-73
2022/06/24 02:53:50;;;;;;;;;;;17.20;99.90;;;;;;4951912;29;19926;-73
2022/06/24 02:56:21;;;;;;;;;;;17.20;99.90;;;;;;4966013;28;19923;-73
2022/06/24 02:58:53;;;;;;;;;;;17.30;99.90;;;;;;4948849;29;20404;-73
2022/06/24 03:01:24;;;;;;;;;;;17.30;99.90;;;;;;4951139;28;19926;-73
2022/06/24 03:03:56;;;;;;;;;;;17.30;99.90;;;;;;4966098;28;20413;-73
2022/06/24 03:06:28;;;;;;;;;;;17.40;99.90;;;;;;4950919;29;20886;-73
2022/06/24 03:08:59;;;;;;;;;;;17.40;99.90;;;;;;4949684;29;19923;-73
2022/06/24 03:11:31;;;;;;;;;;;17.50;99.90;;;;;;4976040;28;19929;-73
2022/06/24 03:14:03;;;;;;;;;;;17.50;99.90;;;;;;4952163;28;20837;-73
2022/06/24 03:16:34;;;;;;;;;;;17.60;99.90;;;;;;4950726;28;20597;-73
2022/06/24 03:19:06;;;;;;;;;;;17.60;99.90;;;;;;4954375;29;19926;-73
2022/06/24 03:21:37;;;;;;;;;;;17.60;99.90;;;;;;4956648;28;19933;-73
2022/06/24 03:24:09;;;;;;;;;;;17.60;99.90;;;;;;4956190;28;19945;-73
2022/06/24 03:26:41;;;;;;;;;;;17.60;99.90;;;;;;4954117;29;20013;-73
2022/06/24 03:29:12;;;;;;;;;;;17.70;99.90;;;;;;4955480;28;19957;-73
2022/06/24 03:31:44;;;;;;;;;;;17.80;99.90;;;;;;4955389;29;19923;-73
2022/06/24 03:34:16;;;;;;;;;;;17.70;99.90;;;;;;4956187;28;20314;-74
2022/06/24 03:36:47;;;;;;;;;;;17.70;99.90;;;;;;4954941;28;21253;-73
2022/06/24 03:39:19;;;;;;;;;;;17.70;99.90;;;;;;4956342;28;19933;-73
2022/06/24 03:41:50;;;;;;;;;;;17.80;99.90;;;;;;4956483;28;19929;-73
2022/06/24 03:44:22;;;;;;;;;;;17.80;99.90;;;;;;4955247;28;19922;-73
2022/06/24 03:46:54;;;;;;;;;;;17.80;99.90;;;;;;4951045;29;19929;-73
2022/06/24 03:49:25;;;;;;;;;;;17.80;99.90;;;;;;4954114;29;19922;-74
2022/06/24 03:51:57;;;;;;;;;;;17.80;99.90;;;;;;4970125;28;20073;-74
2022/06/24 03:54:28;;;;;;;;;;;17.80;99.90;;;;;;4955876;28;19923;-74
2022/06/24 03:57:00;;;;;;;;;;;17.70;99.90;;;;;;4953720;28;19923;-74
2022/06/24 03:59:32;;;;;;;;;;;17.70;99.90;;;;;;4953296;29;20425;-74
2022/06/24 04:02:04;;;;;;;;;;;17.80;99.90;;;;;;4947812;29;20367;-75
2022/06/24 04:04:35;;;;;;;;;;;17.80;99.90;;;;;;4955648;28;20458;-74
2022/06/24 04:07:07;;;;;;;;;;;17.70;99.90;;;;;;4953980;28;20401;-73
2022/06/24 04:09:39;;;;;;;;;;;17.70;99.90;;;;;;4950747;29;19929;-73
2022/06/24 04:12:10;;;;;;;;;;;17.70;99.90;;;;;;4954843;29;19929;-74
2022/06/24 04:17:32;;;;;;;;;;;17.70;99.90;;;;;;4952659;29;19927;-73
2022/06/24 04:20:04;;;;;;;;;;;17.70;99.90;;;;;;4953777;28;19926;-73
2022/06/24 04:22:36;;;;;;;;;;;17.80;99.90;;;;;;4954975;29;20429;-73
2022/06/24 04:25:08;;;;;;;;;;;17.80;99.90;;;;;;4963627;28;19933;-73
2022/06/24 04:27:40;;;;;;;;;;;17.80;99.90;;;;;;4952266;28;19927;-73
2022/06/24 04:30:12;;;;;;;;;;;17.80;99.90;;;;;;4963400;28;19922;-73
2022/06/24 04:32:44;;;;;;;;;;;17.90;99.90;;;;;;4954954;28;19970;-73
2022/06/24 04:35:15;;;;;;;;;;;18.00;99.90;;;;;;4953996;28;19926;-73
2022/06/24 04:37:47;;;;;;;;;;;18.00;99.90;;;;;;4950185;28;19929;-72
2022/06/24 04:40:19;;;;;;;;;;;18.10;99.90;;;;;;4965970;28;19926;-73
2022/06/24 04:42:50;;;;;;;;;;;18.10;99.90;;;;;;4954872;28;19922;-73
2022/06/24 04:45:22;;;;;;;;;;;18.20;99.90;;;;;;4952067;28;20398;-72
2022/06/24 04:47:54;;;;;;;;;;;18.50;99.90;;;;;;4967543;28;20427;-73
2022/06/24 04:50:26;;;;;;;;;;;18.60;99.90;;;;;;4950868;29;19922;-73
2022/06/24 04:52:58;;;;;;;;;;;18.70;99.90;;;;;;4950917;28;19926;-73
2022/06/24 04:55:29;;;;;;;;;;;18.80;99.90;;;;;;4950101;29;20276;-74
2022/06/24 04:58:01;;;;;;;;;;;18.80;99.90;;;;;;4959228;28;19922;-73
2022/06/24 05:00:32;;;;;;;;;;;19.00;99.90;;;;;;4950245;28;20017;-74
2022/06/24 05:03:04;;;;;;;;;;;19.10;99.90;;;;;;4951714;28;19927;-73
2022/06/24 05:05:36;;;;;;;;;;;19.20;99.90;;;;;;4954280;28;20012;-74
2022/06/24 05:08:08;;;;;;;;;;;19.30;99.90;;;;;;4964147;28;19922;-73
2022/06/24 05:10:40;;;;;;;;;;;19.40;99.90;;;;;;4953994;28;20021;-73
2022/06/24 05:13:11;;;;;;;;;;;19.40;99.90;;;;;;4954372;28;19928;-74
2022/06/24 05:15:43;;;;;;;;;;;19.20;99.90;;;;;;4953666;28;19926;-73
2022/06/24 05:18:15;;;;;;;;;;;19.20;99.90;;;;;;4951948;28;19929;-73
2022/06/24 05:20:46;;;;;;;;;;;19.10;99.90;;;;;;4952137;29;20586;-73
2022/06/24 05:23:18;;;;;;;;;;;18.90;99.90;;;;;;4954025;28;19933;-74
2022/06/24 05:25:49;;;;;;;;;;;18.90;99.90;;;;;;4954023;28;19922;-74
2022/06/24 05:28:21;;;;;;;;;;;18.90;99.90;;;;;;4956296;28;19932;-73
2022/06/24 05:30:54;;;;;;;;;;;18.80;99.90;;;;;;4953854;29;20379;-74
2022/06/24 05:33:26;;;;;;;;;;;18.80;99.90;;;;;;4965605;28;19922;-73
2022/06/24 05:35:58;;;;;;;;;;;18.70;99.90;;;;;;4953507;28;20013;-74
2022/06/24 05:38:30;;;;;;;;;;;18.60;99.90;;;;;;4946494;28;19923;-73
2022/06/24 05:41:02;;;;;;;;;;;18.60;99.90;;;;;;4953884;28;20222;-73
2022/06/24 05:43:34;;;;;;;;;;;18.50;99.90;;;;;;4953498;28;19953;-73
2022/06/24 05:46:05;;;;;;;;;;;18.60;99.90;;;;;;4952020;29;19922;-73
2022/06/24 05:48:37;;;;;;;;;;;18.70;99.90;;;;;;4965107;28;19933;-74
2022/06/24 05:51:09;;;;;;;;;;;18.70;99.90;;;;;;4953553;28;20009;-73
2022/06/24 05:56:32;;;;;;;;;;;18.80;99.90;;;;;;4951535;28;20402;-74
2022/06/24 05:59:04;;;;;;;;;;;18.80;99.90;;;;;;4952204;28;19930;-74
2022/06/24 06:01:36;;;;;;;;;;;18.90;99.90;;;;;;4951550;29;20426;-74
2022/06/24 06:04:07;;;;;;;;;;;19.00;99.90;;;;;;4945823;28;20399;-74
2022/06/24 06:06:40;;;;;;;;;;;19.10;99.90;;;;;;4949985;28;19977;-74
2022/06/24 06:09:12;;;;;;;;;;;19.20;99.90;;;;;;4950678;28;19930;-74
2022/06/24 06:11:38;;;;;;;;;;;19.30;99.90;;;;;;4948973;28;19922;-74
2022/06/24 06:14:10;;;;;;;;;;;19.40;99.90;;;;;;4951104;28;19926;-74
2022/06/24 06:16:42;;;;;;;;;;;19.50;99.90;;;;;;4949242;29;19930;-74
2022/06/24 06:19:14;;;;;;;;;;;19.60;99.90;;;;;;4966263;28;20026;-74
2022/06/24 06:21:45;;;;;;;;;;;19.70;99.90;;;;;;4950256;29;19933;-74
2022/06/24 06:24:17;;;;;;;;;;;19.70;99.90;;;;;;4952659;28;19930;-74
2022/06/24 06:26:49;;;;;;;;;;;19.70;99.90;;;;;;4949568;28;19922;-73
2022/06/24 06:29:21;;;;;;;;;;;19.70;99.90;;;;;;4951479;28;19931;-73
2022/06/24 06:31:53;;;;;;;;;;;19.60;99.90;;;;;;4950037;29;19930;-74
2022/06/24 06:34:24;;;;;;;;;;;19.60;99.90;;;;;;4951008;28;19940;-73
2022/06/24 06:36:56;;;;;;;;;;;19.50;99.90;;;;;;4950025;28;19949;-74
2022/06/24 06:39:27;;;;;;;;;;;19.40;99.90;;;;;;4951177;28;19973;-74
2022/06/24 06:41:59;;;;;;;;;;;19.30;99.90;;;;;;4952670;28;19926;-74
2022/06/24 06:44:43;;;;;;;;;;;19.20;99.90;;;;;;4949904;29;20059;-74
2022/06/24 06:47:14;;;;;;;;;;;19.00;99.90;;;;;;4949851;28;19923;-73
2022/06/24 06:49:46;;;;;;;;;;;18.90;99.90;;;;;;4965187;28;19953;-74
2022/06/24 06:52:18;;;;;;;;;;;18.80;99.90;;;;;;4952343;29;20008;-73
2022/06/24 06:54:49;;;;;;;;;;;18.80;99.90;;;;;;4955959;28;20016;-72
2022/06/24 06:57:21;;;;;;;;;;;18.80;99.90;;;;;;4952684;29;20376;-73
2022/06/24 06:59:52;;;;;;;;;;;18.80;99.90;;;;;;4968796;28;19929;-73
2022/06/24 07:02:24;;;;;;;;;;;18.80;99.90;;;;;;4956543;28;19934;-72
2022/06/24 07:04:56;;;;;;;;;;;18.80;99.90;;;;;;4952965;29;19990;-72
2022/06/24 07:07:27;;;;;;;;;;;18.90;99.90;;;;;;4954090;28;19968;-72
2022/06/24 07:09:59;;;;;;;;;;;18.90;99.90;;;;;;4953411;28;20017;-72
2022/06/24 07:12:31;;;;;;;;;;;18.90;99.90;;;;;;4956402;28;19926;-72
2022/06/24 07:15:03;;;;;;;;;;;19.00;99.90;;;;;;4967935;28;20291;-72
2022/06/24 07:17:34;;;;;;;;;;;19.10;99.90;;;;;;4950936;29;19922;-72
2022/06/24 07:20:06;;;;;;;;;;;19.10;99.90;;;;;;4963450;28;19929;-72
2022/06/24 07:22:38;;;;;;;;;;;19.10;99.90;;;;;;4952864;28;19927;-74
2022/06/24 07:25:10;;;;;;;;;;;19.00;99.90;;;;;;4956865;28;19922;-73
2022/06/24 07:27:42;;;;;;;;;;;19.10;99.90;;;;;;4956364;28;19923;-72
2022/06/24 07:30:14;;;;;;;;;;;19.10;99.90;;;;;;4956857;28;19922;-73
2022/06/24 07:32:47;;;;;;;;;;;19.10;99.90;;;;;;4956499;28;19926;-72
2022/06/24 07:35:18;;;;;;;;;;;19.10;99.90;;;;;;4971650;28;19923;-72
2022/06/24 07:37:50;;;;;;;;;;;19.10;99.90;;;;;;4955705;28;19922;-72
2022/06/24 07:40:22;;;;;;;;;;;19.20;99.90;;;;;;4956845;28;19926;-73
2022/06/24 07:42:53;;;;;;;;;;;19.20;99.90;;;;;;4955697;29;19923;-72
2022/06/24 07:45:25;;;;;;;;;;;19.30;99.90;;;;;;4957403;28;19929;-72
2022/06/24 07:47:57;;;;;;;;;;;19.30;99.90;;;;;;4952798;28;19933;-72
2022/06/24 07:50:28;;;;;;;;;;;19.40;99.90;;;;;;4948585;29;19928;-73
2022/06/24 07:53:00;;;;;;;;;;;19.50;99.90;;;;;;4956922;28;20025;-72
2022/06/24 07:58:22;;;;;;;;;;;19.70;99.90;;;;;;4956261;29;19923;-72
2022/06/24 08:00:53;;;;;;;;;;;19.70;99.90;;;;;;4948864;29;19926;-72
2022/06/24 08:03:25;;;;;;;;;;;19.80;99.90;;;;;;4956141;28;19922;-72
2022/06/24 08:05:57;;;;;;;;;;;19.90;99.90;;;;;;4956311;28;19923;-74
2022/06/24 08:08:28;;;;;;;;;;;19.90;99.90;;;;;;4937864;28;19929;-72
2022/06/24 08:11:00;;;;;;;;;;;20.10;99.90;;;;;;4956493;29;19922;-72
2022/06/24 08:13:32;;;;;;;;;;;20.20;99.90;;;;;;4947976;28;19929;-72
2022/06/24 08:16:04;;;;;;;;;;;20.20;99.90;;;;;;4936992;28;19928;-73
2022/06/24 08:18:35;;;;;;;;;;;20.30;99.90;;;;;;4951186;28;19922;-72
2022/06/24 08:21:07;;;;;;;;;;;20.30;99.90;;;;;;4936056;29;19933;-72
2022/06/24 08:23:38;;;;;;;;;;;20.30;99.90;;;;;;4952243;29;19922;-72
2022/06/24 08:26:10;;;;;;;;;;;20.40;99.90;;;;;;4955817;28;19961;-73
2022/06/24 08:28:42;;;;;;;;;;;20.40;99.90;;;;;;4951350;28;20392;-72
2022/06/24 08:31:14;;;;;;;;;;;20.50;99.90;;;;;;4935561;29;19923;-72
2022/06/24 08:33:45;;;;;;;;;;;20.50;99.90;;;;;;4969558;28;20347;-72
2022/06/24 08:36:12;;;;;;;;;;;20.50;99.90;;;;;;4958146;28;19922;-72
2022/06/24 08:38:44;;;;;;;;;;;20.60;99.90;;;;;;4955884;28;20387;-72
2022/06/24 08:41:19;;;;;;;;;;;20.70;99.90;;;;;;4956353;28;20294;-72
2022/06/24 08:43:52;;;;;;;;;;;20.70;99.90;;;;;;4955879;28;20395;-73
2022/06/24 08:46:25;;;;;;;;;;;20.70;99.90;;;;;;4955540;28;19923;-69
2022/06/24 08:48:58;;;;;;;;;;;20.80;99.90;;;;;;4954407;28;19945;-69
2022/06/24 08:51:31;;;;;;;;;;;20.90;99.90;;;;;;4952939;28;19937;-69
2022/06/24 08:54:03;;;;;;;;;;;20.90;99.90;;;;;;4953732;29;19929;-70
2022/06/24 08:56:35;;;;;;;;;;;20.90;99.90;;;;;;4952988;28;19922;-70
2022/06/24 08:59:02;;;;;;;;;;;20.90;99.90;;;;;;4958826;28;20140;-69
2022/06/24 09:01:40;;;;;;;;;;;20.90;99.90;;;;;;4953750;28;19922;-69
2022/06/24 09:04:12;;;;;;;;;;;21.00;99.90;;;;;;4953633;29;19978;-69
2022/06/24 09:06:44;;;;;;;;;;;21.00;99.90;;;;;;4952677;28;19922;-69
2022/06/24 09:09:25;;;;;;;;;;;21.00;99.90;;;;;;4953483;28;19929;-69
2022/06/24 09:11:55;;;;;;;;;;;21.10;99.90;;;;;;4951695;29;20138;-70
2022/06/24 09:14:43;;;;;;;;;;;21.10;99.90;;;;;;4951068;28;19968;-69
2022/06/24 09:17:15;;;;;;;;;;;21.20;99.90;;;;;;4951781;28;19929;-69
2022/06/24 09:19:47;;;;;;;;;;;21.40;99.90;;;;;;4954815;28;19932;-69
2022/06/24 09:22:21;;;;;;;;;;;21.40;99.90;;;;;;4954447;28;20323;-69
2022/06/24 09:24:53;;;;;;;;;;;21.50;99.90;;;;;;4959048;28;19929;-72
2022/06/24 09:27:25;;;;;;;;;;;21.60;99.90;;;;;;4954500;28;19986;-69
2022/06/24 09:29:57;;;;;;;;;;;21.60;99.90;;;;;;4955291;28;19934;-69
2022/06/24 09:32:29;;;;;;;;;;;21.60;99.90;;;;;;4949407;28;20675;-70
2022/06/24 09:35:05;;;;;;;;;;;21.60;99.90;;;;;;4954780;28;19922;-70
2022/06/24 09:37:39;;;;;;;;;;;21.50;99.90;;;;;;4950013;28;19933;-69
2022/06/24 09:40:13;;;;;;;;;;;21.70;99.90;;;;;;4953184;28;20306;-71
2022/06/24 09:42:52;;;;;;;;;;;21.90;99.90;;;;;;4952873;28;19932;-70
2022/06/24 09:45:25;;;;;;;;;;;22.00;99.90;;;;;;4957653;28;19922;-70
2022/06/24 09:47:58;;;;;;;;;;;22.10;99.90;;;;;;4954088;28;19922;-69
2022/06/24 09:50:30;;;;;;;;;;;22.20;99.90;;;;;;4956815;28;19929;-69
2022/06/24 09:53:02;;;;;;;;;;;22.20;99.90;;;;;;4954577;28;19922;-69
2022/06/24 09:55:34;;;;;;;;;;;22.30;99.90;;;;;;4954753;28;19922;-69
2022/06/24 09:58:05;;;;;;;;;;;22.20;99.90;;;;;;4951092;29;19928;-69
2022/06/24 10:00:41;;;;;;;;;;;22.30;99.90;;;;;;4954517;28;19926;-69
2022/06/24 10:03:13;;;;;;;;;;;22.30;99.90;;;;;;4953889;28;19922;-70
2022/06/24 10:05:45;;;;;;;;;;;22.30;99.90;;;;;;4959810;28;19933;-70
2022/06/24 10:08:18;;;;;;;;;;;22.30;99.90;;;;;;4953096;29;19933;-69
2022/06/24 10:10:54;;;;;;;;;;;22.20;99.90;;;;;;4954519;28;19922;-69
2022/06/24 10:13:29;;;;;;;;;;;22.30;99.90;;;;;;4953910;28;19929;-69
2022/06/24 10:16:06;;;;;;;;;;;22.40;99.90;;;;;;4961573;28;20447;-69
2022/06/24 10:18:43;;;;;;;;;;;22.40;99.90;;;;;;4952342;29;19926;-69
2022/06/24 10:21:16;;;;;;;;;;;22.50;99.90;;;;;;4953997;28;19922;-69
2022/06/24 10:23:48;;;;;;;;;;;22.70;99.90;;;;;;4953329;28;19931;-70
2022/06/24 10:26:30;;;;;;;;;;;22.80;99.90;;;;;;4953345;28;19933;-71
2022/06/24 10:29:04;;;;;;;;;;;22.90;99.90;;;;;;4951089;29;19926;-69
2022/06/24 10:31:48;;;;;;;;;;;23.00;99.90;;;;;;4950119;28;19928;-70
2022/06/24 10:34:22;;;;;;;;;;;23.10;99.90;;;;;;4953543;28;19969;-69
2022/06/24 10:36:57;;;;;;;;;;;23.20;99.90;;;;;;4943700;29;19922;-69
2022/06/24 10:39:30;;;;;;;;;;;23.40;99.90;;;;;;4946025;28;20277;-69
2022/06/24 10:42:04;;;;;;;;;;;23.60;99.90;;;;;;4934773;29;19977;-69
2022/06/24 10:44:36;;;;;;;;;;;23.70;99.90;;;;;;4948345;29;19923;-69
2022/06/24 10:47:08;;;;;;;;;;;23.80;99.90;;;;;;4953668;28;19933;-69
2022/06/24 10:50:06;;;;;;;;;;;23.90;99.90;;;;;;4948091;28;19922;-69
2022/06/24 10:52:39;;;;;;;;;;;23.80;99.90;;;;;;4945680;28;19997;-69
2022/06/24 10:57:55;;;;;;;;;;;23.80;99.90;;;;;;4950788;28;19922;-69
2022/06/24 11:00:29;;;;;;;;;;;23.70;99.90;;;;;;4952430;28;20034;-69
2022/06/24 11:03:03;;;;;;;;;;;23.80;99.90;;;;;;4961438;28;20264;-71
2022/06/24 11:05:36;;;;;;;;;;;23.80;99.90;;;;;;4950329;29;19923;-70
2022/06/24 11:08:15;;;;;;;;;;;23.70;99.90;;;;;;4963829;28;19930;-69
2022/06/24 11:10:47;;;;;;;;;;;23.80;99.90;;;;;;4963818;28;19962;-70
2022/06/24 11:13:21;;;;;;;;;;;23.90;99.90;;;;;;4951677;28;19922;-70
2022/06/24 11:15:58;;;;;;;;;;;23.80;99.90;;;;;;4951662;28;19922;-69
2022/06/24 11:18:34;;;;;;;;;;;23.80;99.90;;;;;;4950545;28;20298;-69
2022/06/24 11:21:08;;;;;;;;;;;23.60;99.90;;;;;;4966188;28;19923;-69
2022/06/24 11:23:40;;;;;;;;;;;23.50;99.90;;;;;;4949460;29;19961;-69
2022/06/24 11:26:19;;;;;;;;;;;23.60;99.90;;;;;;4948484;28;19922;-70
2022/06/24 11:28:52;;;;;;;;;;;23.70;99.90;;;;;;4944038;29;19922;-69
2022/06/24 11:31:27;;;;;;;;;;;23.80;99.90;;;;;;4952045;28;19926;-69
2022/06/24 11:34:05;;;;;;;;;;;23.70;99.90;;;;;;4955815;28;19929;-69
2022/06/24 11:36:37;;;;;;;;;;;23.70;99.90;;;;;;4952390;28;19957;-69
2022/06/24 11:39:09;;;;;;;;;;;23.80;99.90;;;;;;4956793;28;19926;-70
2022/06/24 11:41:47;;;;;;;;;;;23.70;99.90;;;;;;4956606;28;19961;-69
2022/06/24 11:44:45;;;;;;;;;;;23.70;99.90;;;;;;4956738;28;19929;-69
2022/06/24 11:47:29;;;;;;;;;;;23.70;99.90;;;;;;4954786;28;19922;-70
2022/06/24 11:50:00;;;;;;;;;;;23.60;99.90;;;;;;4955777;28;19933;-69
2022/06/24 11:52:48;;;;;;;;;;;23.70;99.90;;;;;;4954019;28;20478;-69
2022/06/24 11:55:24;;;;;;;;;;;23.70;99.90;;;;;;4949938;29;19934;-69
2022/06/24 11:57:57;;;;;;;;;;;23.70;99.90;;;;;;4954513;28;19929;-70
2022/06/24 12:00:30;;;;;;;;;;;23.80;99.90;;;;;;4952491;28;19930;-69
2022/06/24 12:03:04;;;;;;;;;;;23.80;99.90;;;;;;4953022;29;19929;-70
2022/06/24 12:05:40;;;;;;;;;;;23.80;99.90;;;;;;4954714;28;20455;-69
2022/06/24 12:08:12;;;;;;;;;;;23.60;99.90;;;;;;4951929;28;19929;-69
2022/06/24 12:10:50;;;;;;;;;;;23.60;99.90;;;;;;4953272;28;20016;-69
2022/06/24 12:13:27;;;;;;;;;;;23.60;99.90;;;;;;4943445;28;19923;-71
2022/06/24 12:15:59;;;;;;;;;;;23.60;99.90;;;;;;4951464;29;19942;-71
2022/06/24 12:18:30;;;;;;;;;;;23.50;99.90;;;;;;4953324;29;19926;-69
2022/06/24 12:21:06;;;;;;;;;;;23.30;99.90;;;;;;4946115;28;19926;-69
2022/06/24 12:23:39;;;;;;;;;;;23.20;99.90;;;;;;4953125;29;19957;-69
2022/06/24 12:26:18;;;;;;;;;;;23.20;99.90;;;;;;4950693;29;19923;-69
2022/06/24 12:29:04;;;;;;;;;;;23.10;99.90;;;;;;4951349;28;19929;-69
2022/06/24 12:31:35;;;;;;;;;;;23.10;99.90;;;;;;4954737;28;19929;-69
2022/06/24 12:34:07;;;;;;;;;;;23.00;99.90;;;;;;4953807;28;20303;-69
2022/06/24 12:36:41;;;;;;;;;;;22.80;99.90;;;;;;4953015;28;19926;-69
2022/06/24 12:39:13;;;;;;;;;;;22.80;99.90;;;;;;4952826;29;19930;-69
2022/06/24 12:41:48;;;;;;;;;;;22.70;99.90;;;;;;4952976;29;19931;-69
2022/06/24 12:44:20;;;;;;;;;;;22.70;99.90;;;;;;4961855;28;20465;-69
2022/06/24 12:52:33;;;;;;;;;;;22.50;99.90;;;;;;4953339;29;19922;-69
2022/06/24 12:55:05;;;;;;;;;;;22.50;99.90;;;;;;4954301;28;19922;-69
2022/06/24 12:57:37;;;;;;;;;;;22.40;99.90;;;;;;4951036;29;19996;-69
2022/06/24 13:00:10;;;;;;;;;;;22.30;99.90;;;;;;4953922;28;19926;-69
2022/06/24 13:02:43;;;;;;;;;;;22.00;99.90;;;;;;4953184;28;19929;-73
2022/06/24 13:05:15;;;;;;;;;;;21.60;99.90;;;;;;4954701;28;20522;-72
2022/06/24 13:07:47;;;;;;;;;;;21.20;99.90;;;;;;4952959;28;19926;-72
2022/06/24 13:10:19;;;;;;;;;;;21.10;99.90;;;;;;4953874;28;19926;-72
2022/06/24 13:12:51;;;;;;;;;;;21.10;99.90;;;;;;4954520;28;20013;-69
2022/06/24 13:15:23;;;;;;;;;;;21.10;99.90;;;;;;4973696;28;19929;-70
2022/06/24 13:17:55;;;;;;;;;;;21.20;99.90;;;;;;4958027;28;20307;-70
2022/06/24 13:20:27;;;;;;;;;;;21.20;99.90;;;;;;4955540;28;20013;-70
2022/06/24 13:22:59;;;;;;;;;;;21.10;99.90;;;;;;4955004;28;20410;-69
2022/06/24 13:25:30;;;;;;;;;;;21.20;99.90;;;;;;4955320;28;19923;-71
2022/06/24 13:28:03;;;;;;;;;;;21.20;99.90;;;;;;4952959;28;19922;-71
2022/06/24 13:30:34;;;;;;;;;;;21.20;99.90;;;;;;4952003;29;19933;-71
2022/06/24 13:33:06;;;;;;;;;;;21.10;99.90;;;;;;4953603;28;19950;-71
2022/06/24 13:35:38;;;;;;;;;;;21.10;99.90;;;;;;4953624;29;19957;-71
2022/06/24 13:38:10;;;;;;;;;;;21.00;99.90;;;;;;4951134;29;19933;-71
2022/06/24 13:40:42;;;;;;;;;;;20.90;99.90;;;;;;4953688;28;19924;-71
2022/06/24 13:43:15;;;;;;;;;;;20.90;99.90;;;;;;4953276;28;19929;-71
2022/06/24 13:45:47;;;;;;;;;;;20.80;99.90;;;;;;4950192;28;19938;-71
2022/06/24 13:48:19;;;;;;;;;;;20.70;99.90;;;;;;4949919;29;19934;-71
2022/06/24 13:50:50;;;;;;;;;;;20.70;99.90;;;;;;4951253;28;19922;-71
2022/06/24 13:53:22;;;;;;;;;;;20.70;99.90;;;;;;4949840;28;19926;-71
2022/06/24 13:55:54;;;;;;;;;;;20.70;99.90;;;;;;4964536;28;20631;-71
2022/06/24 13:58:25;;;;;;;;;;;20.70;99.90;;;;;;4951176;29;19930;-71
2022/06/24 14:00:57;;;;;;;;;;;20.70;99.90;;;;;;4950717;28;20359;-71
2022/06/24 14:03:29;;;;;;;;;;;20.80;99.90;;;;;;4950524;28;20417;-72
2022/06/24 14:06:00;;;;;;;;;;;20.80;99.90;;;;;;4950322;28;19934;-71
2022/06/24 14:08:32;;;;;;;;;;;20.90;99.90;;;;;;4954581;28;19929;-71
2022/06/24 14:11:04;;;;;;;;;;;21.00;99.90;;;;;;4947774;28;19933;-71
2022/06/24 14:13:36;;;;;;;;;;;20.80;99.90;;;;;;4950215;29;19927;-71
2022/06/24 14:16:08;;;;;;;;;;;20.50;99.90;;;;;;4951858;28;19933;-71
2022/06/24 14:18:39;;;;;;;;;;;20.30;99.90;;;;;;4953116;28;19930;-71
2022/06/24 14:21:11;;;;;;;;;;;20.30;99.90;;;;;;4951516;28;19929;-71
2022/06/24 14:26:33;;;;;;;;;;;20.10;99.90;;;;;;4954523;28;19921;-73
2022/06/24 14:29:04;;;;;;;;;;;20.00;99.90;;;;;;4947204;29;19933;-74
2022/06/24 14:31:36;;;;;;;;;;;20.00;99.90;;;;;;4949827;29;19999;-74
2022/06/24 14:34:08;;;;;;;;;;;20.10;99.90;;;;;;4949519;29;20287;-73
2022/06/24 14:36:39;;;;;;;;;;;20.30;99.90;;;;;;4938329;29;19935;-73
2022/06/24 14:42:03;;;;;;;;;;;20.20;99.90;;;;;;4949768;29;19945;-73
2022/06/24 14:44:34;;;;;;;;;;;20.10;99.90;;;;;;4952072;28;19926;-73
2022/06/24 14:47:06;;;;;;;;;;;20.10;99.90;;;;;;4950818;29;19922;-73
2022/06/24 14:49:38;;;;;;;;;;;20.10;99.90;;;;;;4945749;28;19954;-73
2022/06/24 14:52:10;;;;;;;;;;;20.10;99.90;;;;;;4951651;29;20417;-73
2022/06/24 14:54:41;;;;;;;;;;;20.10;99.90;;;;;;4948892;28;19933;-73
2022/06/24 14:57:13;;;;;;;;;;;20.20;99.90;;;;;;4948709;29;19933;-73
2022/06/24 14:59:44;;;;;;;;;;;20.40;99.90;;;;;;4946454;28;19953;-73
2022/06/24 15:02:16;;;;;;;;;;;20.70;99.90;;;;;;4948363;29;20406;-73
2022/06/24 15:04:48;;;;;;;;;;;21.20;99.90;;;;;;4951635;28;19930;-73
2022/06/24 15:07:19;;;;;;;;;;;21.50;99.90;;;;;;4940545;28;19930;-73
2022/06/24 15:09:51;;;;;;;;;;;21.50;99.90;;;;;;4945436;28;19923;-74
2022/06/24 15:12:23;;;;;;;;;;;21.70;99.90;;;;;;4952020;28;20391;-73
2022/06/24 15:14:54;;;;;;;;;;;22.10;99.90;;;;;;4972998;28;20319;-71